createdAt,value
2018-04-06T00:01:54.374Z,97.60
2018-04-06T00:04:22.730Z,97.60
2018-04-06T00:06:50.322Z,97.60
2018-04-06T00:09:17.886Z,97.60
2018-04-06T00:11:46.213Z,97.60
2018-04-06T00:14:13.769Z,97.60
2018-04-06T00:16:41.330Z,97.50
2018-04-06T00:19:08.895Z,97.60
2018-04-06T00:21:36.458Z,97.50
2018-04-06T00:24:04.047Z,97.40
2018-04-06T00:26:31.598Z,97.40
2018-04-06T00:28:59.206Z,97.50
2018-04-06T00:31:26.786Z,97.40
2018-04-06T00:33:54.370Z,97.40
2018-04-06T00:36:21.922Z,97.40
2018-04-06T00:38:49.475Z,97.40
2018-04-06T00:41:17.042Z,97.30
2018-04-06T00:43:44.619Z,97.20
2018-04-06T00:46:12.974Z,97.20
2018-04-06T00:48:40.539Z,97.20
2018-04-06T00:51:08.098Z,97.20
2018-04-06T00:53:47.461Z,97.20
2018-04-06T00:56:15.030Z,97.20
2018-04-06T00:58:42.616Z,97.40
2018-04-06T01:01:10.186Z,97.20
2018-04-06T01:03:37.770Z,97.30
2018-04-06T01:06:05.322Z,97.30
2018-04-06T01:08:32.877Z,97.40
2018-04-06T01:11:00.470Z,97.50
2018-04-06T01:13:28.022Z,97.50
2018-04-06T01:15:55.597Z,97.50
2018-04-06T01:18:23.164Z,97.60
2018-04-06T01:20:50.759Z,97.60
2018-04-06T01:23:18.345Z,97.70
2018-04-06T01:25:45.905Z,97.80
2018-04-06T01:28:13.459Z,97.90
2018-04-06T01:30:41.010Z,97.90
2018-04-06T01:33:08.567Z,98.00
2018-04-06T01:35:36.146Z,98.00
2018-04-06T01:38:03.721Z,98.00
2018-04-06T01:40:31.281Z,98.00
2018-04-06T01:42:58.842Z,98.10
2018-04-06T01:45:26.423Z,98.00
2018-04-06T01:47:54.008Z,97.70
2018-04-06T01:50:21.557Z,97.30
2018-04-06T01:52:49.120Z,96.90
2018-04-06T01:55:16.680Z,96.40
2018-04-06T01:57:44.231Z,96.10
2018-04-06T02:00:11.820Z,95.40
2018-04-06T02:02:39.379Z,94.90
2018-04-06T02:05:06.939Z,95.20
2018-04-06T02:07:34.499Z,94.70
2018-04-06T02:10:02.058Z,94.10
2018-04-06T02:12:29.644Z,93.70
2018-04-06T02:14:57.194Z,92.90
2018-04-06T02:17:24.746Z,93.30
2018-04-06T02:19:52.322Z,93.30
2018-04-06T02:22:19.881Z,93.30
2018-04-06T02:24:48.300Z,93.50
2018-04-06T02:27:16.614Z,93.80
2018-04-06T02:29:44.185Z,93.50
2018-04-06T02:32:11.750Z,93.40
2018-04-06T02:34:39.310Z,93.50
2018-04-06T02:37:06.895Z,93.10
2018-04-06T02:39:34.454Z,93.70
2018-04-06T02:42:02.014Z,93.70
2018-04-06T02:44:29.571Z,93.70
2018-04-06T02:46:57.131Z,93.80
2018-04-06T02:49:24.729Z,94.00
2018-04-06T02:51:52.285Z,94.00
2018-04-06T02:54:19.838Z,94.00
2018-04-06T02:56:47.402Z,94.20
2018-04-06T02:59:14.973Z,94.30
2018-04-06T03:01:42.558Z,94.30
2018-04-06T03:04:10.134Z,94.40
2018-04-06T03:06:38.462Z,94.60
2018-04-06T03:09:06.018Z,94.50
2018-04-06T03:11:33.581Z,94.50
2018-04-06T03:14:01.193Z,94.60
2018-04-06T03:16:29.528Z,94.80
2018-04-06T03:18:57.085Z,94.70
2018-04-06T03:21:24.647Z,94.80
2018-04-06T03:23:52.973Z,95.00
2018-04-06T03:26:20.560Z,94.90
2018-04-06T03:28:48.114Z,95.00
2018-04-06T03:31:15.672Z,95.10
2018-04-06T03:33:43.247Z,95.10
2018-04-06T03:36:10.822Z,95.10
2018-04-06T03:38:38.411Z,95.00
2018-04-06T03:41:05.978Z,95.00
2018-04-06T03:43:33.538Z,95.10
2018-04-06T03:46:01.862Z,94.80
2018-04-06T03:48:29.438Z,94.80
2018-04-06T03:50:57.023Z,94.90
2018-04-06T03:53:24.581Z,94.40
2018-04-06T03:55:52.141Z,94.30
2018-04-06T03:58:19.722Z,94.10
2018-04-06T04:00:47.278Z,93.90
2018-04-06T04:03:14.858Z,93.40
2018-04-06T04:05:42.413Z,93.20
2018-04-06T04:08:09.977Z,93.20
2018-04-06T04:10:37.586Z,92.60
2018-04-06T04:13:05.138Z,92.50
2018-04-06T04:15:32.718Z,92.40
2018-04-06T04:18:00.280Z,92.30
2018-04-06T04:20:28.587Z,92.40
2018-04-06T04:22:56.142Z,92.60
2018-04-06T04:25:23.702Z,91.80
2018-04-06T04:27:51.282Z,91.90
2018-04-06T04:30:18.835Z,91.70
2018-04-06T04:32:46.391Z,92.00
2018-04-06T04:35:13.946Z,91.80
2018-04-06T04:37:41.517Z,91.70
2018-04-06T04:40:09.102Z,92.10
2018-04-06T04:42:36.664Z,91.50
2018-04-06T04:45:04.224Z,91.70
2018-04-06T04:47:31.779Z,91.70
2018-04-06T04:49:59.338Z,91.10
2018-04-06T04:52:26.918Z,91.30
2018-04-06T04:54:54.477Z,91.40
2018-04-06T04:57:22.803Z,91.30
2018-04-06T04:59:50.364Z,91.20
2018-04-06T05:02:17.930Z,91.30
2018-04-06T05:04:45.525Z,91.40
2018-04-06T05:07:13.102Z,91.00
2018-04-06T05:09:40.682Z,91.30
2018-04-06T05:12:08.243Z,91.10
2018-04-06T05:14:35.808Z,91.40
2018-04-06T05:17:03.487Z,90.70
2018-04-06T05:19:31.062Z,91.10
2018-04-06T05:21:58.622Z,91.00
2018-04-06T05:24:26.182Z,90.70
2018-04-06T05:26:53.750Z,91.00
2018-04-06T05:29:21.333Z,90.80
2018-04-06T05:31:48.891Z,90.80
2018-04-06T05:34:17.225Z,91.00
2018-04-06T05:36:44.781Z,90.90
2018-04-06T05:39:12.338Z,90.80
2018-04-06T05:41:39.927Z,90.70
2018-04-06T05:44:07.484Z,90.60
2018-04-06T05:46:35.035Z,90.60
2018-04-06T05:49:02.590Z,90.60
2018-04-06T05:51:30.142Z,91.00
2018-04-06T05:53:57.730Z,90.20
2018-04-06T05:56:25.294Z,90.60
2018-04-06T05:58:52.850Z,90.60
2018-04-06T06:01:20.409Z,90.30
2018-04-06T06:03:47.961Z,90.60
2018-04-06T06:06:15.550Z,90.50
2018-04-06T06:08:43.103Z,90.70
2018-04-06T06:11:10.662Z,90.70
2018-04-06T06:13:38.982Z,90.80
2018-04-06T06:16:07.313Z,91.00
2018-04-06T06:18:34.930Z,91.00
2018-04-06T06:21:02.494Z,90.90
2018-04-06T06:23:30.053Z,91.00
2018-04-06T06:25:57.627Z,91.20
2018-04-06T06:28:25.190Z,91.30
2018-04-06T06:30:52.758Z,91.60
2018-04-06T06:33:20.350Z,91.40
2018-04-06T06:35:47.905Z,91.70
2018-04-06T06:38:15.466Z,91.90
2018-04-06T06:40:43.026Z,91.80
2018-04-06T06:43:10.628Z,91.90
2018-04-06T06:45:38.182Z,91.90
2018-04-06T06:48:05.798Z,92.30
2018-04-06T06:50:33.350Z,92.30
2018-04-06T06:53:01.671Z,92.30
2018-04-06T06:55:29.230Z,92.20
2018-04-06T06:57:56.790Z,92.10
2018-04-06T07:00:24.396Z,92.40
2018-04-06T07:02:52.722Z,92.00
2018-04-06T07:05:20.281Z,92.30
2018-04-06T07:07:47.833Z,92.50
2018-04-06T07:10:15.392Z,92.80
2018-04-06T07:12:42.977Z,92.60
2018-04-06T07:15:10.569Z,92.80
2018-04-06T07:24:21.410Z,92.30
2018-04-06T07:26:48.986Z,92.60
2018-04-06T07:29:17.310Z,92.40
2018-04-06T07:31:44.874Z,92.40
2018-04-06T07:34:12.433Z,92.90
2018-04-06T07:36:39.990Z,93.20
2018-04-06T07:39:07.903Z,93.30
2018-04-06T07:41:35.466Z,93.10
2018-04-06T07:44:03.020Z,93.10
2018-04-06T07:46:31.346Z,93.40
2018-04-06T07:48:58.901Z,93.10
2018-04-06T07:51:26.498Z,92.90
2018-04-06T07:53:54.058Z,93.50
2018-04-06T07:56:22.387Z,93.40
2018-04-06T07:58:49.210Z,93.30
2018-04-06T08:01:16.769Z,93.30
2018-04-06T08:03:44.361Z,93.10
2018-04-06T08:06:11.922Z,93.00
2018-04-06T08:08:39.477Z,92.90
2018-04-06T08:11:07.088Z,93.50
2018-04-06T08:13:34.637Z,93.30
2018-04-06T08:16:02.962Z,93.10
2018-04-06T08:18:30.553Z,93.10
2018-04-06T08:20:58.104Z,93.60
2018-04-06T08:23:25.658Z,93.10
2018-04-06T08:25:53.217Z,93.40
2018-04-06T08:28:20.775Z,92.90
2018-04-06T08:30:49.106Z,93.20
2018-04-06T08:33:16.658Z,93.20
2018-04-06T08:35:44.220Z,93.10
2018-04-06T08:38:11.805Z,92.90
2018-04-06T08:40:39.390Z,92.90
2018-04-06T08:43:06.946Z,92.80
2018-04-06T08:45:34.509Z,92.20
2018-04-06T08:48:02.125Z,93.00
2018-04-06T08:50:29.674Z,92.60
2018-04-06T08:52:57.234Z,92.80
2018-04-06T08:55:24.784Z,92.90
2018-04-06T08:57:52.338Z,92.80
2018-04-06T09:00:19.898Z,92.70
2018-04-06T09:02:47.483Z,93.30
2018-04-06T09:05:15.038Z,92.80
2018-04-06T09:07:42.594Z,92.60
2018-04-06T09:10:10.185Z,92.80
2018-04-06T09:12:37.750Z,92.70
2018-04-06T09:15:05.323Z,92.60
2018-04-06T09:17:32.882Z,92.60
2018-04-06T09:20:00.446Z,93.00
2018-04-06T09:22:28.049Z,92.70
2018-04-06T09:24:55.602Z,93.00
2018-04-06T09:27:23.154Z,93.10
2018-04-06T09:29:50.718Z,93.00
2018-04-06T09:32:18.282Z,92.90
2018-04-06T09:34:45.876Z,93.20
2018-04-06T09:37:14.850Z,93.20
2018-04-06T09:39:42.411Z,92.70
2018-04-06T09:42:09.974Z,93.00
2018-04-06T09:44:37.528Z,93.40
2018-04-06T09:47:05.110Z,93.20
2018-04-06T09:49:33.430Z,93.20
2018-04-06T09:52:01.464Z,93.50
2018-04-06T09:54:29.098Z,93.20
2018-04-06T09:56:56.659Z,93.40
2018-04-06T09:59:24.246Z,93.10
2018-04-06T10:01:56.433Z,92.80
2018-04-06T10:04:23.996Z,93.30
2018-04-06T10:06:53.113Z,92.90
2018-04-06T10:09:20.693Z,93.50
2018-04-06T10:11:48.282Z,93.10
2018-04-06T10:14:15.842Z,92.80
2018-04-06T10:16:43.418Z,93.50
2018-04-06T10:19:10.972Z,92.70
2018-04-06T10:21:38.527Z,93.10
2018-04-06T10:24:06.111Z,92.70
2018-04-06T10:26:34.435Z,92.90
2018-04-06T10:29:01.995Z,92.80
2018-04-06T10:31:29.552Z,92.90
2018-04-06T10:33:57.114Z,92.40
2018-04-06T10:36:24.696Z,93.00
2018-04-06T10:38:52.258Z,93.20
2018-04-06T10:41:19.814Z,93.30
2018-04-06T10:43:47.382Z,92.50
2018-04-06T10:46:14.942Z,93.50
2018-04-06T10:48:42.540Z,92.60
2018-04-06T10:51:10.090Z,93.10
2018-04-06T10:53:37.651Z,92.50
2018-04-06T10:56:05.205Z,92.40
2018-04-06T10:58:32.807Z,92.80
2018-04-06T11:01:00.383Z,93.00
2018-04-06T11:03:27.947Z,92.90
2018-04-06T11:05:55.502Z,92.70
2018-04-06T11:08:23.054Z,92.80
2018-04-06T11:10:56.904Z,92.90
2018-04-06T11:13:24.510Z,93.00
2018-04-06T11:15:52.066Z,92.90
2018-04-06T11:18:19.637Z,92.40
2018-04-06T11:20:47.186Z,91.80
2018-04-06T11:23:14.744Z,90.60
2018-04-06T11:25:43.085Z,90.60
2018-04-06T11:28:11.401Z,90.60
2018-04-06T11:30:38.961Z,90.60
2018-04-06T11:33:06.513Z,90.30
2018-04-06T11:35:34.071Z,89.10
2018-04-06T11:38:01.715Z,90.30
2018-04-06T11:40:29.998Z,88.70
2018-04-06T11:42:57.558Z,88.10
2018-04-06T11:45:25.106Z,88.40
2018-04-06T11:47:52.664Z,89.20
2018-04-06T11:50:20.263Z,89.00
2018-04-06T11:52:47.822Z,89.00
2018-04-06T11:55:15.375Z,88.50
2018-04-06T11:57:42.935Z,88.70
2018-04-06T12:00:10.490Z,89.60
2018-04-06T12:02:38.067Z,90.10
2018-04-06T12:05:05.808Z,89.60
2018-04-06T12:07:33.434Z,89.20
2018-04-06T12:10:01.011Z,89.80
2018-04-06T12:12:28.586Z,89.10
2018-04-06T12:14:56.168Z,90.00
2018-04-06T12:17:23.730Z,90.10
2018-04-06T12:19:51.287Z,90.00
2018-04-06T12:22:18.845Z,90.60
2018-04-06T12:24:46.406Z,90.20
2018-04-06T12:27:13.998Z,89.90
2018-04-06T12:29:42.394Z,90.80
2018-04-06T12:32:09.953Z,90.80
2018-04-06T12:34:37.506Z,89.50
2018-04-06T12:37:05.089Z,90.00
2018-04-06T12:39:32.702Z,89.70
2018-04-06T12:42:00.262Z,89.30
2018-04-06T12:44:27.833Z,89.10
2018-04-06T12:46:55.386Z,89.80
2018-04-06T12:49:23.712Z,89.10
2018-04-06T12:51:51.302Z,89.10
2018-04-06T12:54:18.858Z,89.20
2018-04-06T12:56:46.418Z,87.80
2018-04-06T12:59:13.975Z,88.50
2018-04-06T13:01:41.530Z,88.00
2018-04-06T13:04:09.117Z,87.50
2018-04-06T13:06:36.670Z,87.20
2018-04-06T13:09:04.238Z,85.70
2018-04-06T13:11:31.795Z,85.60
2018-04-06T13:13:59.347Z,84.10
2018-04-06T13:16:26.930Z,83.20
2018-04-06T13:18:55.249Z,82.70
2018-04-06T13:21:22.806Z,82.70
2018-04-06T13:23:50.386Z,83.30
2018-04-06T13:26:17.966Z,81.70
2018-04-06T13:28:45.552Z,81.70
2018-04-06T13:31:13.110Z,80.90
2018-04-06T13:33:40.659Z,80.80
2018-04-06T13:36:08.217Z,82.50
2018-04-06T13:38:35.780Z,82.80
2018-04-06T13:41:04.127Z,82.40
2018-04-06T13:43:31.682Z,82.40
2018-04-06T13:45:59.250Z,82.70
2018-04-06T13:48:26.805Z,83.50
2018-04-06T13:50:54.369Z,84.00
2018-04-06T13:53:21.946Z,83.00
2018-04-06T13:55:49.544Z,80.20
2018-04-06T13:58:17.101Z,80.00
2018-04-06T14:00:45.430Z,79.00
2018-04-06T14:03:12.982Z,79.10
2018-04-06T14:05:40.570Z,78.20
2018-04-06T14:08:08.881Z,81.30
2018-04-06T14:10:36.459Z,81.30
2018-04-06T14:13:04.010Z,83.80
2018-04-06T14:15:31.566Z,85.80
2018-04-06T14:17:59.914Z,87.20
2018-04-06T14:20:27.509Z,87.20
2018-04-06T14:22:55.066Z,86.60
2018-04-06T14:25:22.645Z,87.60
2018-04-06T14:27:50.206Z,87.90
2018-04-06T14:30:17.753Z,87.60
2018-04-06T14:32:45.342Z,87.10
2018-04-06T14:35:12.903Z,87.10
2018-04-06T14:37:41.266Z,85.80
2018-04-06T14:40:08.822Z,85.70
2018-04-06T14:42:36.370Z,86.30
2018-04-06T14:45:03.950Z,87.90
2018-04-06T14:47:31.514Z,85.90
2018-04-06T14:49:59.847Z,83.20
2018-04-06T14:52:27.422Z,83.20
2018-04-06T14:54:54.985Z,82.20
2018-04-06T14:57:22.596Z,81.20
2018-04-06T14:59:50.141Z,79.90
2018-04-06T15:02:17.698Z,79.90
2018-04-06T15:04:45.250Z,80.90
2018-04-06T15:07:12.807Z,81.20
2018-04-06T15:09:40.391Z,81.20
2018-04-06T15:12:07.952Z,81.30
2018-04-06T15:14:35.509Z,82.50
2018-04-06T15:17:03.068Z,84.70
2018-04-06T15:19:30.624Z,84.70
2018-04-06T15:21:59.033Z,87.00
2018-04-06T15:24:26.622Z,86.90
2018-04-06T15:26:54.179Z,86.20
2018-04-06T15:29:21.734Z,86.90
2018-04-06T15:31:49.290Z,87.60
2018-04-06T15:34:16.880Z,86.60
2018-04-06T15:36:45.204Z,87.50
2018-04-06T15:39:12.778Z,87.40
2018-04-06T15:41:40.330Z,87.00
2018-04-06T15:44:07.886Z,87.10
2018-04-06T15:46:36.231Z,86.10
2018-04-06T15:49:03.786Z,86.00
2018-04-06T15:51:32.119Z,85.40
2018-04-06T15:53:59.682Z,85.30
2018-04-06T15:56:27.234Z,86.60
2018-04-06T15:58:54.826Z,86.40
2018-04-06T16:01:22.382Z,85.80
2018-04-06T16:03:49.943Z,85.90
2018-04-06T16:06:17.499Z,86.30
2018-04-06T16:08:45.051Z,83.70
2018-04-06T16:11:12.654Z,81.90
2018-04-06T16:13:40.256Z,82.80
2018-04-06T16:16:07.963Z,82.90
2018-04-06T16:18:36.282Z,81.50
2018-04-06T16:21:03.837Z,81.40
2018-04-06T16:23:31.422Z,81.30
2018-04-06T16:25:58.978Z,81.70
2018-04-06T16:28:26.562Z,81.00
2018-04-06T16:30:54.123Z,82.00
2018-04-06T16:33:22.486Z,81.10
2018-04-06T16:35:50.105Z,81.10
2018-04-06T16:38:17.665Z,81.10
2018-04-06T16:40:45.227Z,81.60
2018-04-06T16:43:12.799Z,81.10
2018-04-06T16:45:40.370Z,80.10
2018-04-06T16:48:07.967Z,81.00
2018-04-06T16:50:36.290Z,81.20
2018-04-06T16:53:03.851Z,81.00
2018-04-06T16:55:31.409Z,80.80
2018-04-06T16:57:58.978Z,80.10
2018-04-06T17:00:26.578Z,80.60
2018-04-06T17:02:54.134Z,80.50
2018-04-06T17:05:22.541Z,80.50
2018-04-06T17:07:50.104Z,81.90
2018-04-06T17:10:17.658Z,80.80
2018-04-06T17:12:45.239Z,80.10
2018-04-06T17:15:12.814Z,80.30
2018-04-06T17:17:40.377Z,80.40
2018-04-06T17:20:07.946Z,79.90
2018-04-06T17:22:35.502Z,79.80
2018-04-06T17:25:03.099Z,79.30
2018-04-06T17:27:30.671Z,80.20
2018-04-06T17:29:58.232Z,79.20
2018-04-06T17:32:25.782Z,78.90
2018-04-06T17:34:53.342Z,78.40
2018-04-06T17:37:20.927Z,79.10
2018-04-06T17:39:48.485Z,79.20
2018-04-06T17:42:16.035Z,79.30
2018-04-06T17:44:43.593Z,79.50
2018-04-06T17:47:11.149Z,79.30
2018-04-06T17:49:38.745Z,79.50
2018-04-06T17:52:06.315Z,79.70
2018-04-06T17:54:33.878Z,79.80
2018-04-06T17:57:01.438Z,79.80
2018-04-06T17:59:28.987Z,80.30
2018-04-06T18:01:56.585Z,79.70
2018-04-06T18:04:24.138Z,79.50
2018-04-06T18:06:52.464Z,79.60
2018-04-06T18:09:20.073Z,79.60
2018-04-06T18:11:47.615Z,79.90
2018-04-06T18:14:15.203Z,79.40
2018-04-06T18:16:43.528Z,77.20
2018-04-06T18:19:11.094Z,77.10
2018-04-06T18:21:38.651Z,76.70
2018-04-06T18:24:06.212Z,77.10
2018-04-06T18:26:33.805Z,76.70
2018-04-06T18:29:01.369Z,76.90
2018-04-06T18:31:28.925Z,76.90
2018-04-06T18:33:57.254Z,77.20
2018-04-06T18:36:24.823Z,77.20
2018-04-06T18:38:52.401Z,76.90
2018-04-06T18:41:19.962Z,77.50
2018-04-06T18:43:47.518Z,76.90
2018-04-06T18:46:15.082Z,77.40
2018-04-06T18:48:42.638Z,77.50
2018-04-06T18:51:10.226Z,77.50
2018-04-06T18:53:37.790Z,77.90
2018-04-06T18:56:05.353Z,77.70
2018-04-06T18:58:32.939Z,78.50
2018-04-06T19:01:00.500Z,78.30
2018-04-06T19:03:28.118Z,78.50
2018-04-06T19:05:55.670Z,78.40
2018-04-06T19:08:23.246Z,78.90
2018-04-06T19:10:51.565Z,80.50
2018-04-06T19:13:19.122Z,80.40
2018-04-06T19:15:46.714Z,79.60
2018-04-06T19:18:14.270Z,79.40
2018-04-06T19:20:41.825Z,79.50
2018-04-06T19:23:09.390Z,79.20
2018-04-06T19:25:36.948Z,79.40
2018-04-06T19:28:04.537Z,79.30
2018-04-06T19:30:32.853Z,79.70
2018-04-06T19:33:00.420Z,79.70
2018-04-06T19:35:27.986Z,78.50
2018-04-06T19:37:55.546Z,80.00
2018-04-06T19:40:23.144Z,79.70
2018-04-06T19:42:51.478Z,78.60
2018-04-06T19:45:19.038Z,78.60
2018-04-06T19:47:46.598Z,79.00
2018-04-06T19:50:14.158Z,79.50
2018-04-06T19:52:41.750Z,79.20
2018-04-06T19:55:10.079Z,80.30
2018-04-06T19:57:37.650Z,80.20
2018-04-06T20:00:05.226Z,79.60
2018-04-06T20:02:32.784Z,80.20
2018-04-06T20:05:00.369Z,80.90
2018-04-06T20:07:27.932Z,79.40
2018-04-06T20:09:55.495Z,79.00
2018-04-06T20:12:23.817Z,80.00
2018-04-06T20:14:52.133Z,78.70
2018-04-06T20:17:19.718Z,78.70
2018-04-06T20:19:48.048Z,80.20
2018-04-06T20:22:15.613Z,80.20
2018-04-06T20:24:43.666Z,79.60
2018-04-06T20:27:11.222Z,81.60
2018-04-06T20:29:38.778Z,81.50
2018-04-06T20:32:06.334Z,81.90
2018-04-06T20:34:33.894Z,81.30
2018-04-06T20:37:01.591Z,80.00
2018-04-06T20:39:29.146Z,81.50
2018-04-06T20:41:56.706Z,80.10
2018-04-06T20:44:24.266Z,79.00
2018-04-06T20:46:51.826Z,81.00
2018-04-06T20:49:19.418Z,79.50
2018-04-06T20:51:46.977Z,80.60
2018-04-06T20:54:14.534Z,80.80
2018-04-06T20:56:42.118Z,79.80
2018-04-06T20:59:09.679Z,81.40
2018-04-06T21:01:37.235Z,82.30
2018-04-06T21:04:04.796Z,82.80
2018-04-06T21:06:32.366Z,82.20
2018-04-06T21:08:59.942Z,82.80
2018-04-06T21:11:27.515Z,82.40
2018-04-06T21:13:55.115Z,81.50
2018-04-06T21:16:22.695Z,82.30
2018-04-06T21:18:50.249Z,80.80
2018-04-06T21:21:17.811Z,81.50
2018-04-06T21:23:45.394Z,79.40
2018-04-06T21:26:12.950Z,78.40
2018-04-06T21:28:40.506Z,80.30
2018-04-06T21:31:08.070Z,79.40
2018-04-06T21:33:35.951Z,78.60
2018-04-06T21:36:03.548Z,77.90
2018-04-06T21:38:31.104Z,78.70
2018-04-06T21:40:59.425Z,81.00
2018-04-06T21:43:27.034Z,81.00
2018-04-06T21:45:54.581Z,81.70
2018-04-06T21:48:22.174Z,81.90
2018-04-06T21:50:49.726Z,80.80
2018-04-06T21:53:18.052Z,81.70
2018-04-06T21:55:45.622Z,81.70
2018-04-06T21:58:13.178Z,81.50
2018-04-06T22:00:40.781Z,81.30
2018-04-06T22:03:08.334Z,80.60
2018-04-06T22:05:36.665Z,80.80
2018-04-06T22:08:04.225Z,80.80
2018-04-06T22:10:31.806Z,80.80
2018-04-06T22:12:59.401Z,79.30
2018-04-06T22:15:26.969Z,79.40
2018-04-06T22:17:54.522Z,81.90
2018-04-06T22:20:22.079Z,79.30
2018-04-06T22:22:49.635Z,79.00
2018-04-06T22:25:17.986Z,78.90
2018-04-06T22:27:45.547Z,78.90
2018-04-06T22:30:13.117Z,79.00
2018-04-06T22:32:41.440Z,80.40
2018-04-06T22:35:09.004Z,80.40
2018-04-06T22:37:36.608Z,79.90
2018-04-06T22:40:04.170Z,80.80
2018-04-06T22:42:31.740Z,82.10
2018-04-06T22:45:00.062Z,81.20
2018-04-06T22:47:27.621Z,81.20
2018-04-06T22:49:55.213Z,82.50
2018-04-06T22:52:22.771Z,81.00
2018-04-06T22:54:50.325Z,80.60
2018-04-06T22:57:17.890Z,80.50
2018-04-06T22:59:45.450Z,80.40
2018-04-06T23:02:13.039Z,81.40
2018-04-06T23:04:40.610Z,81.70
2018-04-06T23:07:08.178Z,81.10
2018-04-06T23:09:35.729Z,82.90
2018-04-06T23:12:03.294Z,84.00
2018-04-06T23:14:30.886Z,84.30
2018-04-06T23:16:58.462Z,84.00
2018-04-06T23:19:26.026Z,84.30
2018-04-06T23:21:53.588Z,83.60
2018-04-06T23:24:21.146Z,83.90
2018-04-06T23:26:48.734Z,83.50
2018-04-06T23:29:16.311Z,83.00
2018-04-06T23:31:43.879Z,83.30
2018-04-06T23:34:11.436Z,83.80
2018-04-06T23:36:38.998Z,84.10
2018-04-06T23:39:06.594Z,84.00
2018-04-06T23:41:34.155Z,83.90
2018-04-06T23:44:01.716Z,83.50
2018-04-06T23:46:29.298Z,83.90
2018-04-06T23:48:57.633Z,84.40
2018-04-06T23:51:25.228Z,84.40
2018-04-06T23:53:53.566Z,84.30
2018-04-06T23:56:21.126Z,84.20
2018-04-06T23:58:48.686Z,84.30
